Time;durP1;ratioP1;P1;durP2;ratioP2;P2;SDS_P1;SDS_P2;PMS_P1;PMS_P2;Temp;Humidity;BMP_temperature;BMP_pressure;BME280_temperature;BME280_humidity;BME280_pressure;Samples;Min_cycle;Max_cycle;Signal;HPM_P1;HPM_P2
2022/05/31 00:01:05;;;;;;;86.07;16.23;;;;;;;;;;5009078;28;20216;-52
2022/05/31 00:03:31;;;;;;;113.40;20.83;;;;;;;;;;5006222;28;20248;-51
2022/05/31 00:05:57;;;;;;;179.33;30.57;;;;;;;;;;4995276;28;20213;-51
2022/05/31 00:08:23;;;;;;;158.10;26.67;;;;;;;;;;5000584;28;20208;-53
2022/05/31 00:10:49;;;;;;;183.60;29.07;;;;;;;;;;4993973;28;20216;-51
2022/05/31 00:13:14;;;;;;;271.40;43.50;;;9.60;99.10;;;;;;4996269;28;20621;-53
2022/05/31 00:15:40;;;;;;;109.33;17.67;;;;;;;;;;4992726;28;20217;-53
2022/05/31 00:18:06;;;;;;;143.27;24.47;;;;;;;;;;4996886;28;20558;-51
2022/05/31 00:20:32;;;;;;;165.43;27.93;;;;;;;;;;5003393;28;20193;-51
2022/05/31 00:22:58;;;;;;;152.87;25.87;;;9.50;98.70;;;;;;5000802;28;20193;-53
2022/05/31 00:25:24;;;;;;;122.67;20.83;;;;;;;;;;5000934;28;20286;-51
2022/05/31 00:27:50;;;;;;;91.27;15.93;;;;;;;;;;5001060;28;20612;-52
2022/05/31 00:30:16;;;;;;;156.37;25.70;;;;;;;;;;5004988;28;20923;-51
2022/05/31 00:32:47;;;;;;;140.40;23.03;;;9.50;99.90;;;;;;5006612;28;20211;-52
2022/05/31 00:35:26;;;;;;;106.37;17.77;;;9.10;99.90;;;;;;4999480;28;20637;-53
2022/05/31 00:37:54;;;;;;;143.70;23.27;;;9.20;99.90;;;;;;5009314;28;20328;-53
2022/05/31 00:40:22;;;;;;;150.50;23.93;;;9.10;99.90;;;;;;4998557;28;20221;-51
2022/05/31 00:42:57;;;;;;;101.07;16.77;;;9.00;99.90;;;;;;5001089;28;20274;-53
2022/05/31 00:45:41;;;;;;;143.10;22.70;;;8.90;99.90;;;;;;4990112;28;20219;-51
2022/05/31 00:48:12;;;;;;;118.53;18.93;;;9.00;99.90;;;;;;5005809;28;20209;-51
2022/05/31 00:50:46;;;;;;;140.33;21.93;;;8.90;99.90;;;;;;4999041;28;20200;-52
2022/05/31 00:53:21;;;;;;;151.37;24.70;;;8.80;99.90;;;;;;5003336;28;20196;-53
2022/05/31 00:55:57;;;;;;;151.33;24.77;;;8.70;99.90;;;;;;5002447;28;20216;-51
2022/05/31 00:58:46;;;;;;;118.60;18.77;;;8.90;99.90;;;;;;5003256;28;20561;-52
2022/05/31 01:01:16;;;;;;;145.80;23.17;;;9.20;99.90;;;;;;5001059;28;20299;-52
2022/05/31 01:03:43;;;;;;;90.27;14.67;;;9.20;99.90;;;;;;4999292;28;20220;-52
2022/05/31 01:06:10;;;;;;;110.87;17.67;;;9.00;99.90;;;;;;5002539;28;20569;-51
2022/05/31 01:08:41;;;;;;;115.23;18.53;;;9.10;99.90;;;;;;4999487;28;20255;-53
2022/05/31 01:11:07;;;;;;;92.80;14.93;;;;;;;;;;5005111;28;20181;-53
2022/05/31 01:13:33;;;;;;;100.30;16.03;;;9.10;99.90;;;;;;5015061;28;20223;-52
2022/05/31 01:16:04;;;;;;;78.30;12.73;;;9.00;99.90;;;;;;5002749;28;20573;-51
2022/05/31 01:18:30;;;;;;;139.67;22.93;;;;;;;;;;5003386;28;20320;-51
2022/05/31 01:20:56;;;;;;;120.17;19.27;;;;;;;;;;5002355;28;20377;-53
2022/05/31 01:23:24;;;;;;;146.87;23.03;;;8.70;99.90;;;;;;4999724;28;20622;-52
2022/05/31 01:26:05;;;;;;;134.63;21.70;;;9.10;99.90;;;;;;5000178;28;20223;-52
2022/05/31 01:28:56;;;;;;;154.20;24.37;;;8.70;99.90;;;;;;4997947;28;20628;-51
2022/05/31 01:31:28;;;;;;;94.53;14.90;;;8.70;99.90;;;;;;5005076;28;20224;-53
2022/05/31 01:34:27;;;;;;;114.13;18.03;;;8.90;99.90;;;;;;5000440;28;20224;-52
2022/05/31 01:36:55;;;;;;;117.53;18.27;;;9.00;99.90;;;;;;4995040;28;20597;-52
2022/05/31 01:39:37;;;;;;;152.10;23.63;;;8.80;99.90;;;;;;4992285;28;20700;-53
2022/05/31 01:42:08;;;;;;;126.43;19.57;;;7.70;99.90;;;;;;5000506;28;20218;-53
2022/05/31 01:44:37;;;;;;;133.43;21.30;;;8.20;99.90;;;;;;5002164;28;20197;-51
2022/05/31 01:47:04;;;;;;;148.67;23.03;;;8.70;99.90;;;;;;5004775;28;20235;-52
2022/05/31 01:49:34;;;;;;;97.23;15.43;;;8.80;99.90;;;;;;5002863;28;20742;-52
2022/05/31 01:52:00;;;;;;;117.03;18.13;;;;;;;;;;4998115;28;20217;-51
2022/05/31 01:54:27;;;;;;;95.47;15.20;;;8.70;99.90;;;;;;4997761;28;20238;-51
2022/05/31 01:56:57;;;;;;;141.97;21.80;;;8.80;99.90;;;;;;5003678;28;20701;-52
2022/05/31 01:59:25;;;;;;;111.60;17.97;;;8.50;99.90;;;;;;5006025;28;20203;-50
2022/05/31 02:01:52;;;;;;;95.47;15.30;;;8.50;99.90;;;;;;5001192;28;20719;-52
2022/05/31 02:04:18;;;;;;;150.03;22.67;;;;;;;;;;4999479;28;20262;-52
2022/05/31 02:06:45;;;;;;;157.07;24.27;;;8.20;99.90;;;;;;4996612;28;20216;-52
2022/05/31 02:09:13;;;;;;;132.57;20.67;;;8.20;99.90;;;;;;4995574;28;20221;-52
2022/05/31 02:11:39;;;;;;;144.27;22.00;;;8.30;99.90;;;;;;5004290;28;20187;-51
2022/05/31 02:14:08;;;;;;;157.83;23.70;;;8.40;99.90;;;;;;4998479;28;20213;-51
2022/05/31 02:16:34;;;;;;;105.53;16.13;;;8.20;99.90;;;;;;4996008;28;20251;-53
2022/05/31 02:19:18;;;;;;;115.27;17.40;;;;;;;;;;5006787;28;20644;-51
2022/05/31 02:21:43;;;;;;;162.17;23.70;;;8.50;99.90;;;;;;4996775;28;20200;-52
2022/05/31 02:24:14;;;;;;;132.20;19.77;;;8.20;99.90;;;;;;5000797;28;20383;-52
2022/05/31 02:26:41;;;;;;;98.47;15.23;;;5.70;99.90;;;;;;5001115;28;20177;-52
2022/05/31 02:29:09;;;;;;;157.67;23.20;;;8.20;99.90;;;;;;5003834;28;20196;-53
2022/05/31 02:31:35;;;;;;;145.43;21.70;;;;;;;;;;5001726;28;20251;-52
2022/05/31 02:34:01;;;;;;;116.77;17.37;;;8.40;99.90;;;;;;4998351;28;20315;-52
2022/05/31 02:36:27;;;;;;;111.17;16.57;;;;;;;;;;4999287;28;20697;-51
2022/05/31 02:38:53;;;;;;;143.73;21.27;;;;;;;;;;4998930;28;20220;-51
2022/05/31 02:41:19;;;;;;;165.67;23.83;;;;;;;;;;4993334;28;20191;-51
2022/05/31 02:43:45;;;;;;;112.17;16.57;;;8.40;99.90;;;;;;5004102;28;20635;-52
2022/05/31 02:46:11;;;;;;;141.27;20.27;;;8.20;99.90;;;;;;5000277;28;20982;-51
2022/05/31 02:48:36;;;;;;;77.20;11.57;;;8.10;99.90;;;;;;4999360;28;20231;-53
2022/05/31 02:51:02;;;;;;;188.33;26.63;;;;;;;;;;5000009;28;20760;-52
2022/05/31 02:53:29;;;;;;;103.93;15.23;;;;;;;;;;4993120;28;20295;-52
2022/05/31 02:55:55;;;;;;;134.60;19.17;;;7.80;99.90;;;;;;4994201;28;20219;-52
2022/05/31 02:58:21;;;;;;;111.20;16.47;;;7.80;99.90;;;;;;5003571;28;20232;-52
2022/05/31 03:00:47;;;;;;;150.50;21.63;;;;;;;;;;4995519;28;20221;-52
2022/05/31 03:03:13;;;;;;;134.37;19.20;;;;;;;;;;4994550;28;20231;-52
2022/05/31 03:05:39;;;;;;;116.07;17.03;;;8.20;99.90;;;;;;4998521;28;20291;-53
2022/05/31 03:08:05;;;;;;;120.37;17.43;;;7.90;99.90;;;;;;4999063;28;20212;-52
2022/05/31 03:10:38;;;;;;;126.73;18.10;;;7.80;99.90;;;;;;4994681;28;20836;-53
2022/05/31 03:13:04;;;;;;;119.37;17.07;;;;;;;;;;5002459;28;20215;-52
2022/05/31 03:15:33;;;;;;;59.67;9.03;;;8.00;99.90;;;;;;5005184;28;20299;-53
2022/05/31 03:18:22;;;;;;;96.37;14.30;;;8.40;99.90;;;;;;5001761;28;20216;-53
2022/05/31 03:20:50;;;;;;;139.20;20.40;;;8.00;99.90;;;;;;4994738;28;20814;-53
2022/05/31 03:23:25;;;;;;;106.20;15.50;;;7.80;99.90;;;;;;5003057;28;20177;-52
2022/05/31 03:25:53;;;;;;;188.77;26.80;;;8.10;99.90;;;;;;4997726;28;20311;-51
2022/05/31 03:28:20;;;;;;;93.87;13.60;;;8.30;99.90;;;;;;5000763;28;20294;-53
2022/05/31 03:30:45;;;;;;;145.60;20.50;;;8.10;99.90;;;;;;4996830;28;20224;-52
2022/05/31 03:33:12;;;;;;;148.30;20.87;;;8.10;99.90;;;;;;4998032;28;20708;-53
2022/05/31 03:35:38;;;;;;;138.97;20.00;;;8.20;99.90;;;;;;4997155;28;20212;-51
2022/05/31 03:38:04;;;;;;;94.30;13.83;;;8.20;99.90;;;;;;5002566;28;20589;-53
2022/05/31 03:43:15;;;;;;;141.87;20.23;;;8.00;99.90;;;;;;4998575;28;20273;-52
2022/05/31 03:45:42;;;;;;;114.00;17.03;;;8.10;99.90;;;;;;4999981;28;20603;-52
2022/05/31 03:48:09;;;;;;;197.30;28.00;;;8.10;99.90;;;;;;5007511;28;20236;-51
2022/05/31 03:50:38;;;;;;;121.27;18.00;;;8.40;99.90;;;;;;5004047;28;20230;-53
2022/05/31 03:53:04;;;;;;;132.53;19.27;;;;;;;;;;4997587;28;20208;-52
2022/05/31 03:55:30;;;;;;;149.00;21.63;;;;;;;;;;4999914;28;20712;-51
2022/05/31 03:57:57;;;;;;;173.87;25.07;;;;;;;;;;4994980;28;20224;-51
2022/05/31 04:00:23;;;;;;;172.30;24.83;;;;;;;;;;4995443;28;20247;-52
2022/05/31 04:02:49;;;;;;;114.43;17.03;;;;;;;;;;4992115;28;20247;-50
2022/05/31 04:05:15;;;;;;;115.37;16.93;;;;;;;;;;5002988;28;20192;-51
2022/05/31 04:07:41;;;;;;;138.83;20.23;;;;;;;;;;4999087;28;20727;-51
2022/05/31 04:10:08;;;;;;;141.73;20.47;;;8.60;99.90;;;;;;5004217;28;20302;-50
2022/05/31 04:12:34;;;;;;;189.90;27.90;;;8.80;99.90;;;;;;5000004;28;20224;-50
2022/05/31 04:15:01;;;;;;;140.17;20.23;;;;;;;;;;4990920;28;22105;-51
2022/05/31 04:17:27;;;;;;;92.13;13.83;;;;;;;;;;4999048;28;20226;-50
2022/05/31 04:19:52;;;;;;;110.57;16.67;;;8.80;99.90;;;;;;5002114;28;20274;-53
2022/05/31 04:22:18;;;;;;;133.07;18.80;;;;;;;;;;5001988;28;20653;-51
2022/05/31 04:24:45;;;;;;;147.53;21.40;;;;;;;;;;4996304;28;20224;-51
2022/05/31 04:27:17;;;;;;;143.27;20.10;;;9.10;99.90;;;;;;5006884;28;20224;-51
2022/05/31 04:29:43;;;;;;;93.53;14.40;;;;;;;;;;5009832;28;20271;-52
2022/05/31 04:32:09;;;;;;;132.37;18.57;;;;;;;;;;4995956;28;20664;-51
2022/05/31 04:34:34;;;;;;;115.80;17.03;;;9.20;99.90;;;;;;4999463;28;20298;-51
2022/05/31 04:37:00;;;;;;;75.30;11.77;;;9.30;99.90;;;;;;5004099;28;20216;-52
2022/05/31 04:39:26;;;;;;;142.83;20.53;;;;;;;;;;5004695;28;20244;-51
2022/05/31 04:41:52;;;;;;;133.10;19.77;;;;;;;;;;4999171;28;20220;-52
2022/05/31 04:44:18;;;;;;;141.43;20.07;;;;;;;;;;5002877;28;20184;-52
2022/05/31 04:46:44;;;;;;;136.33;20.57;;;;;;;;;;5001151;28;20363;-53
2022/05/31 04:49:10;;;;;;;112.93;17.57;;;;;;;;;;5000743;28;20223;-53
2022/05/31 04:51:36;;;;;;;82.70;12.90;;;9.70;99.90;;;;;;4997183;28;20212;-51
2022/05/31 04:54:03;;;;;;;143.23;21.60;;;9.80;99.90;;;;;;4998727;28;20742;-51
2022/05/31 04:56:29;;;;;;;134.57;20.23;;;10.10;99.90;;;;;;4997160;28;20188;-54
2022/05/31 04:58:54;;;;;;;130.20;19.57;;;11.00;99.90;;;;;;5002517;28;20731;-51
2022/05/31 05:01:21;;;;;;;123.43;18.13;;;10.10;99.90;;;;;;4999641;28;20274;-52
2022/05/31 05:03:47;;;;;;;160.83;24.00;;;10.10;99.90;;;;;;5004080;28;20398;-51
2022/05/31 05:06:15;;;;;;;134.33;20.60;;;10.20;99.90;;;;;;4997536;28;20380;-51
2022/05/31 05:08:41;;;;;;;108.30;16.83;;;;;;;;;;5003741;28;20197;-50
2022/05/31 05:11:11;;;;;;;87.80;13.77;;;10.40;99.90;;;;;;4997937;28;20179;-52
2022/05/31 05:13:37;;;;;;;79.27;12.23;;;10.50;99.90;;;;;;5013305;28;20751;-52
2022/05/31 05:16:04;;;;;;;144.07;22.50;;;10.60;99.90;;;;;;5005378;28;20232;-52
2022/05/31 05:18:30;;;;;;;97.57;15.30;;;10.60;99.90;;;;;;5002907;28;20634;-51
2022/05/31 05:20:56;;;;;;;157.07;23.80;;;10.70;99.90;;;;;;5015482;28;20219;-53
2022/05/31 05:23:22;;;;;;;96.47;14.97;;;11.20;99.90;;;;;;5009524;28;20688;-52
2022/05/31 05:25:49;;;;;;;47.10;7.90;;;11.20;99.90;;;;;;5005261;28;20700;-52
2022/05/31 05:30:59;;;;;;;94.43;14.83;;;11.60;99.90;;;;;;5008533;28;20227;-52
2022/05/31 05:33:25;;;;;;;113.27;17.47;;;11.60;99.90;;;;;;5009939;28;20580;-53
2022/05/31 05:35:50;;;;;;;105.90;16.57;;;11.90;99.90;;;;;;5008916;28;20212;-54
2022/05/31 05:38:16;;;;;;;145.47;22.03;;;;;;;;;;5002722;28;20193;-52
2022/05/31 05:40:42;;;;;;;163.17;25.80;;;;;;;;;;4984894;28;20221;-51
2022/05/31 05:43:09;;;;;;;115.93;18.33;;;11.70;75.60;;;;;;4995447;28;20364;-52
2022/05/31 05:45:36;;;;;;;177.03;26.97;;;11.90;38.90;;;;;;4998168;28;20224;-52
2022/05/31 05:48:02;;;;;;;119.47;19.10;;;11.80;52.50;;;;;;5000418;28;20224;-53
2022/05/31 05:50:28;;;;;;;108.43;17.43;;;;;;;;;;4997801;28;20255;-52
2022/05/31 05:53:01;;;;;;;193.23;30.20;;;12.10;48.20;;;;;;4997134;28;20265;-53
2022/05/31 05:55:26;;;;;;;93.80;15.27;;;12.00;13.90;;;;;;4999759;28;20223;-53
2022/05/31 05:57:52;;;;;;;112.10;18.27;;;12.20;24.40;;;;;;5002283;28;20220;-53
2022/05/31 06:00:18;;;;;;;113.83;18.20;;;12.10;1.00;;;;;;5008563;28;20230;-54
2022/05/31 06:02:48;;;;;;;63.00;11.07;;;12.40;1.00;;;;;;4999020;28;20205;-53
2022/05/31 06:05:27;;;;;;;100.47;15.97;;;12.10;1.00;;;;;;5002879;28;20231;-52
2022/05/31 06:07:55;;;;;;;160.27;25.70;;;12.30;1.00;;;;;;4996237;28;20315;-53
2022/05/31 06:10:26;;;;;;;164.87;26.20;;;12.70;1.00;;;;;;4994835;28;20208;-52
2022/05/31 06:13:03;;;;;;;131.07;21.53;;;12.30;1.00;;;;;;4998190;28;20220;-52
2022/05/31 06:15:32;;;;;;;131.50;21.83;;;12.70;1.00;;;;;;5008249;28;20580;-53
2022/05/31 06:18:00;;;;;;;134.57;22.40;;;12.70;1.00;;;;;;4989679;28;20216;-52
2022/05/31 06:20:27;;;;;;;82.43;14.17;;;12.60;1.00;;;;;;4999547;28;20241;-53
2022/05/31 06:22:55;;;;;;;85.70;14.27;;;12.80;1.00;;;;;;5008354;28;20217;-53
2022/05/31 06:25:20;;;;;;;66.28;11.30;;;12.60;1.00;;;;;;5015290;28;20229;-51
2022/05/31 06:27:47;;;;;;;58.93;9.93;;;12.70;1.00;;;;;;5013698;28;20810;-53
2022/05/31 06:30:13;;;;;;;85.10;14.17;;;12.70;1.00;;;;;;5011105;28;20672;-52
2022/05/31 06:32:38;;;;;;;85.93;14.73;;;12.70;1.00;;;;;;5016654;28;20172;-51
2022/05/31 06:35:05;;;;;;;74.33;12.57;;;12.80;1.00;;;;;;5013598;28;20212;-53
2022/05/31 06:37:31;;;;;;;53.92;9.35;;;12.80;1.00;;;;;;5014367;28;20282;-53
2022/05/31 06:39:57;;;;;;;68.87;11.70;;;13.10;1.00;;;;;;5018522;28;20773;-52
2022/05/31 06:42:23;;;;;;;58.28;10.10;;;12.90;1.00;;;;;;5014219;28;20232;-53
2022/05/31 06:44:48;;;;;;;122.63;20.90;;;13.00;1.00;;;;;;5010301;28;20251;-54
2022/05/31 06:47:14;;;;;;;113.60;19.00;;;13.00;1.00;;;;;;4999812;28;20542;-54
2022/05/31 06:49:41;;;;;;;114.47;19.17;;;;;;;;;;5000964;28;20215;-53
2022/05/31 06:57:42;;;;;;;96.32;15.57;;;13.20;1.00;;;;;;5006335;28;20275;-53
2022/05/31 07:00:11;;;;;;;94.53;15.47;;;13.30;99.90;;;;;;5005459;28;20232;-54
2022/05/31 07:02:37;;;;;;;120.65;19.42;;;;;;;;;;5008326;28;20184;-54
2022/05/31 07:05:03;;;;;;;118.87;19.10;;;13.30;1.00;;;;;;5006736;28;20202;-54
2022/05/31 07:07:29;;;;;;;144.43;22.97;;;13.70;1.00;;;;;;5013641;28;20303;-54
2022/05/31 07:09:54;;;;;;;105.38;17.13;;;13.60;1.00;;;;;;5005726;28;20310;-53
2022/05/31 07:12:20;;;;;;;92.25;14.93;;;13.60;99.90;;;;;;5010074;28;20604;-54
2022/05/31 07:14:46;;;;;;;125.73;20.60;;;13.70;1.00;;;;;;5007247;28;20205;-55
2022/05/31 07:17:12;;;;;;;87.78;14.98;;;13.80;97.30;;;;;;5007521;28;20581;-51
2022/05/31 07:19:39;;;;;;;138.70;23.42;;;14.00;1.00;;;;;;4998855;28;20414;-51
2022/05/31 07:22:04;;;;;;;90.53;15.88;;;13.80;95.50;;;;;;5006970;28;20212;-51
2022/05/31 07:24:31;;;;;;;114.55;19.98;;;14.10;1.00;;;;;;4996578;28;20223;-51
2022/05/31 07:26:56;;;;;;;157.43;26.13;;;14.20;1.00;;;;;;5005747;28;20304;-52
2022/05/31 07:29:22;;;;;;;82.60;14.20;;;14.40;1.00;;;;;;4995638;28;20283;-51
2022/05/31 07:31:48;;;;;;;156.40;27.07;;;14.60;99.90;;;;;;4999873;28;20303;-53
2022/05/31 07:34:15;;;;;;;62.08;10.93;;;14.50;99.90;;;;;;5021912;28;20246;-54
2022/05/31 07:36:41;;;;;;;74.63;13.25;;;14.60;1.00;;;;;;5016945;28;20220;-54
2022/05/31 07:39:13;;;;;;;64.60;11.45;;;14.40;23.10;;;;;;5020951;28;20304;-53
2022/05/31 07:41:39;;;;;;;48.60;8.75;;;14.50;1.00;;;;;;5025778;28;20184;-54
2022/05/31 07:44:06;;;;;;;21.50;4.28;;;14.50;1.00;;;;;;5026229;28;20287;-54
2022/05/31 07:46:32;;;;;;;58.33;10.60;;;14.50;99.90;;;;;;5023720;28;20233;-54
2022/05/31 07:49:01;;;;;;;84.03;14.75;;;15.50;99.90;;;;;;5011914;28;20678;-54
2022/05/31 07:51:27;;;;;;;39.97;7.47;;;14.40;99.90;;;;;;5016795;28;20624;-54
2022/05/31 07:53:53;;;;;;;44.25;8.10;;;14.20;99.90;;;;;;5019271;28;20717;-54
2022/05/31 07:56:19;;;;;;;54.15;9.38;;;14.80;1.00;;;;;;5023173;28;20260;-54
2022/05/31 07:58:46;;;;;;;64.03;11.27;;;14.80;1.00;;;;;;5017730;28;20227;-53
2022/05/31 08:01:16;;;;;;;39.55;7.30;;;14.70;1.00;;;;;;5019200;28;20260;-54
2022/05/31 08:03:42;;;;;;;73.63;12.80;;;14.70;99.90;;;;;;5019797;28;20221;-54
2022/05/31 08:06:11;;;;;;;51.42;9.52;;;15.00;1.00;;;;;;5015555;28;20296;-53
2022/05/31 08:08:37;;;;;;;46.42;9.02;;;14.80;1.00;;;;;;5022432;28;20192;-54
2022/05/31 08:11:05;;;;;;;48.83;9.02;;;14.90;99.90;;;;;;5020258;28;20198;-54
2022/05/31 08:13:31;;;;;;;37.08;6.88;;;14.90;99.90;;;;;;5025033;28;20216;-54
2022/05/31 08:15:58;;;;;;;77.75;13.98;;;15.00;1.00;;;;;;5025120;28;20327;-54
2022/05/31 08:18:23;;;;;;;56.17;10.23;;;15.30;99.90;;;;;;5015946;28;20526;-54
2022/05/31 08:20:49;;;;;;;53.08;9.68;;;15.20;99.90;;;;;;5021520;28;20212;-54
2022/05/31 08:23:14;;;;;;;65.20;11.57;;;15.30;84.80;;;;;;5015801;28;20193;-54
2022/05/31 08:25:40;;;;;;;57.20;10.73;;;15.50;1.00;;;;;;5020310;28;20261;-54
2022/05/31 08:28:06;;;;;;;146.57;25.10;;;15.40;1.00;;;;;;5018212;28;20310;-54
2022/05/31 08:30:32;;;;;;;99.28;17.42;;;15.80;88.50;;;;;;5016959;28;20306;-54
2022/05/31 08:32:58;;;;;;;79.28;14.57;;;15.70;1.00;;;;;;5015160;28;20304;-54
2022/05/31 08:35:23;;;;;;;65.57;12.20;;;15.70;1.00;;;;;;5016502;28;20266;-54
2022/05/31 08:37:49;;;;;;;63.22;11.35;;;15.60;26.50;;;;;;5016648;28;20220;-54
2022/05/31 08:40:15;;;;;;;48.10;9.15;;;15.70;99.90;;;;;;5013941;28;20213;-53
2022/05/31 08:42:51;;;;;;;74.45;13.40;;;15.50;99.90;;;;;;5021426;28;20217;-54
2022/05/31 08:45:47;;;;;;;85.55;15.57;;;15.80;1.00;;;;;;5016694;28;20213;-54
2022/05/31 08:48:42;;;;;;;84.60;15.25;;;15.60;1.00;;;;;;5016288;28;20221;-54
2022/05/31 08:57:03;;;;;;;94.22;17.73;;;16.10;1.00;;;;;;5015158;28;20232;-54
2022/05/31 09:00:00;;;;;;;76.97;14.13;;;16.30;1.00;;;;;;5016007;28;20572;-54
2022/05/31 09:02:49;;;;;;;72.60;14.20;;;16.20;1.00;;;;;;5016373;28;20772;-54
2022/05/31 09:05:22;;;;;;;81.05;15.75;;;16.50;1.00;;;;;;5017639;28;20197;-54
2022/05/31 09:08:01;;;;;;;78.07;14.80;;;16.70;99.90;;;;;;5022784;28;20235;-54
2022/05/31 09:10:40;;;;;;;64.30;12.98;;;16.80;1.00;;;;;;5021463;28;20315;-54
2022/05/31 09:13:15;;;;;;;82.15;16.42;;;17.00;99.90;;;;;;5024416;28;20661;-54
2022/05/31 09:16:20;;;;;;;81.05;16.45;;;16.80;99.90;;;;;;5024425;28;20295;-54
2022/05/31 09:18:51;;;;;;;61.95;12.32;;;17.30;99.90;;;;;;5022026;28;20227;-54
2022/05/31 09:21:17;;;;;;;53.90;11.00;;;17.20;99.90;;;;;;5024289;28;20696;-55
2022/05/31 09:23:45;;;;;;;62.55;13.07;;;17.10;99.90;;;;;;5017520;28;20183;-54
2022/05/31 09:26:40;;;;;;;69.50;14.73;;;17.70;99.90;;;;;;5024921;28;20549;-54
2022/05/31 09:29:14;;;;;;;72.22;15.35;;;17.60;99.90;;;;;;5023455;28;20273;-54
2022/05/31 09:31:43;;;;;;;67.10;14.38;;;17.60;1.00;;;;;;5020078;28;20230;-54
2022/05/31 09:34:27;;;;;;;92.10;19.33;;;18.00;99.90;;;;;;5017033;28;20224;-55
2022/05/31 09:37:03;;;;;;;95.88;20.13;;;18.00;99.90;;;;;;5018321;28;20220;-54
2022/05/31 09:40:09;;;;;;;81.95;17.90;;;17.80;99.90;;;;;;5009730;28;20239;-54
2022/05/31 09:42:52;;;;;;;79.38;17.20;;;18.10;99.90;;;;;;4984394;28;20368;-54
2022/05/31 09:45:20;;;;;;;71.75;16.92;;;18.60;99.90;;;;;;5017759;28;20216;-54
2022/05/31 09:47:47;;;;;;;67.25;15.95;;;18.00;99.90;;;;;;5025395;28;20657;-54
2022/05/31 09:50:13;;;;;;;104.80;24.92;;;18.70;99.90;;;;;;5025503;28;20649;-54
2022/05/31 09:52:43;;;;;;;60.72;15.23;;;18.40;99.90;;;;;;5023177;28;20214;-55
2022/05/31 09:58:30;;;;;;;89.35;20.70;;;18.70;87.40;;;;;;5023744;28;20303;-55
2022/05/31 10:01:04;;;;;;;78.15;18.80;;;18.50;85.80;;;;;;5020599;28;20230;-54
2022/05/31 10:03:39;;;;;;;78.47;17.98;;;18.20;99.90;;;;;;5018191;28;20274;-54
2022/05/31 10:06:23;;;;;;;53.58;13.30;;;18.30;76.70;;;;;;5014846;28;20269;-54
2022/05/31 10:08:54;;;;;;;130.43;28.63;;;18.00;99.90;;;;;;5009264;28;20220;-54
2022/05/31 10:11:32;;;;;;;110.25;24.80;;;18.10;99.90;;;;;;5009562;28;20181;-54
2022/05/31 10:14:05;;;;;;;175.95;37.22;;;18.20;99.90;;;;;;5003013;28;20228;-53
2022/05/31 10:16:35;;;;;;;223.15;47.00;;;18.30;57.00;;;;;;5007651;28;20219;-54
2022/05/31 10:19:01;;;;;;;70.30;16.83;;;;;;;;;;5012080;28;20397;-54
2022/05/31 10:21:35;;;;;;;109.10;25.33;;;18.30;59.30;;;;;;5005717;28;20212;-54
2022/05/31 10:24:20;;;;;;;91.65;21.52;;;18.40;62.00;;;;;;5008411;28;20220;-54
2022/05/31 10:27:05;;;;;;;123.53;29.60;;;18.90;38.70;;;;;;5002719;28;20243;-54
2022/05/31 10:29:40;;;;;;;80.57;19.15;;;18.60;24.40;;;;;;5008695;28;20195;-54
2022/05/31 10:32:27;;;;;;;117.35;27.15;;;18.30;99.90;;;;;;5011990;28;20195;-54
2022/05/31 10:35:13;;;;;;;104.35;24.25;;;19.10;1.00;;;;;;5009358;28;20225;-54
2022/05/31 10:38:09;;;;;;;102.82;24.25;;;19.10;99.90;;;;;;5004058;28;20446;-54
2022/05/31 10:40:57;;;;;;;106.25;26.00;;;19.40;1.00;;;;;;5008118;28;20224;-53
2022/05/31 10:43:35;;;;;;;115.93;27.92;;;19.10;99.90;;;;;;5007677;28;20584;-54
2022/05/31 10:46:15;;;;;;;109.78;27.95;;;19.20;99.90;;;;;;5006695;28;20236;-54
2022/05/31 10:48:48;;;;;;;89.72;22.50;;;19.40;99.90;;;;;;5009625;28;20216;-54
2022/05/31 10:51:46;;;;;;;97.55;24.40;;;19.30;1.00;;;;;;5015218;28;20216;-55
2022/05/31 10:54:30;;;;;;;124.68;35.08;;;19.30;1.00;;;;;;4963422;28;20788;-54
2022/05/31 10:57:11;;;;;;;118.28;105.70;;;19.30;65.70;;;;;;5018705;28;20310;-54
2022/05/31 10:59:51;;;;;;;99.82;53.65;;;19.40;1.00;;;;;;5010689;28;20199;-54
2022/05/31 11:02:17;;;;;;;150.52;93.00;;;;;;;;;;5015807;28;20173;-54
2022/05/31 11:05:13;;;;;;;125.15;90.35;;;19.40;1.00;;;;;;5014217;28;20219;-54
2022/05/31 11:11:28;;;;;;;133.13;62.90;;;19.60;1.00;;;;;;5012393;28;20640;-54
2022/05/31 11:14:06;;;;;;;144.52;50.67;;;19.80;1.00;;;;;;5012829;28;20704;-54
2022/05/31 11:16:48;;;;;;;113.28;39.20;;;19.80;1.00;;;;;;5011540;28;20212;-54
2022/05/31 11:19:33;;;;;;;230.20;78.22;;;19.80;1.00;;;;;;5003184;28;20235;-54
2022/05/31 11:22:28;;;;;;;105.50;36.08;;;20.20;99.90;;;;;;5003604;28;20209;-55
2022/05/31 11:25:17;;;;;;;116.35;38.35;;;20.50;99.90;;;;;;4998935;28;20251;-55
2022/05/31 11:28:00;;;;;;;184.30;56.22;;;20.60;1.00;;;;;;5005382;28;20263;-55
2022/05/31 11:30:35;;;;;;;111.38;35.55;;;20.70;1.00;;;;;;5002614;28;20216;-54
2022/05/31 11:33:25;;;;;;;187.85;54.45;;;20.70;1.00;;;;;;5003502;28;20900;-54
2022/05/31 11:36:06;;;;;;;89.13;27.35;;;20.70;1.00;;;;;;5005071;28;20204;-54
2022/05/31 11:38:57;;;;;;;101.07;31.27;;;20.60;1.00;;;;;;5006531;28;20210;-54
2022/05/31 11:41:47;;;;;;;104.45;31.92;;;20.70;1.00;;;;;;5010571;28;20742;-54
2022/05/31 11:44:24;;;;;;;138.32;40.22;;;20.50;1.00;;;;;;5011616;28;20204;-55
2022/05/31 11:47:09;;;;;;;133.35;39.20;;;20.70;99.90;;;;;;5005458;28;20216;-54
2022/05/31 11:49:54;;;;;;;120.43;37.35;;;20.50;1.00;;;;;;5004722;28;20273;-55
2022/05/31 11:52:47;;;;;;;116.10;35.08;;;20.60;1.00;;;;;;5012836;28;20243;-54
2022/05/31 11:55:25;;;;;;;146.60;42.05;;;20.70;1.00;;;;;;5014924;28;20212;-54
2022/05/31 11:58:17;;;;;;;141.80;43.38;;;20.50;1.00;;;;;;4996703;28;20228;-55
2022/05/31 12:01:09;;;;;;;144.25;45.83;;;20.50;1.00;;;;;;5013477;28;20224;-54
2022/05/31 12:03:51;;;;;;;133.77;42.42;;;20.40;1.00;;;;;;5010198;28;20200;-55
2022/05/31 12:06:31;;;;;;;112.65;36.15;;;20.60;1.00;;;;;;5010775;28;20212;-54
2022/05/31 12:09:39;;;;;;;157.65;49.55;;;20.50;1.00;;;;;;5008621;28;20304;-55
2022/05/31 12:12:15;;;;;;;251.32;68.47;;;20.20;99.90;;;;;;4996167;28;20717;-54
2022/05/31 12:14:48;;;;;;;116.45;32.40;;;20.50;1.00;;;;;;4989512;28;20303;-54
2022/05/31 12:17:16;;;;;;;122.18;34.17;;;20.50;99.90;;;;;;5006038;28;20204;-54
2022/05/31 12:19:59;;;;;;;200.63;53.95;;;20.80;99.90;;;;;;5006198;28;20470;-54
2022/05/31 12:22:33;;;;;;;91.00;25.85;;;21.60;1.00;;;;;;5010972;28;20299;-54
2022/05/31 12:25:23;;;;;;;92.55;28.15;;;21.70;99.90;;;;;;5012662;28;20208;-54
2022/05/31 12:27:57;;;;;;;113.43;38.72;;;22.20;99.90;;;;;;5009164;28;20582;-54
2022/05/31 12:30:27;;;;;;;155.68;62.53;;;22.10;1.00;;;;;;5004869;28;20253;-54
2022/05/31 12:32:54;;;;;;;159.68;81.90;;;;;;;;;;5012170;28;20209;-54
2022/05/31 12:35:48;;;;;;;158.05;67.90;;;22.00;1.00;;;;;;5015132;28;20205;-54
2022/05/31 12:38:14;;;;;;;96.80;43.78;;;22.10;1.00;;;;;;5006885;28;20216;-54
2022/05/31 12:40:47;;;;;;;153.40;62.53;;;22.00;99.90;;;;;;5007144;28;21168;-54
2022/05/31 12:43:34;;;;;;;211.70;74.70;;;22.20;1.00;;;;;;4998091;28;20212;-54
2022/05/31 12:46:19;;;;;;;146.82;51.22;;;22.50;99.90;;;;;;4999254;28;20212;-54
2022/05/31 12:48:59;;;;;;;196.98;68.97;;;22.70;1.00;;;;;;4995464;28;20640;-54
2022/05/31 12:51:25;;;;;;;199.52;64.38;;;;;;;;;;4998426;28;20231;-54
2022/05/31 12:53:58;;;;;;;110.93;44.08;;;22.90;1.00;;;;;;4998107;28;20283;-54
2022/05/31 12:56:30;;;;;;;223.48;69.20;;;23.20;99.90;;;;;;4994270;28;20331;-54
2022/05/31 12:58:57;;;;;;;226.63;90.50;;;23.30;1.00;;;;;;4992896;28;20399;-54
2022/05/31 13:01:22;;;;;;;258.13;143.32;;;23.50;99.90;;;;;;5010514;28;20216;-54
2022/05/31 13:03:54;;;;;;;206.90;135.68;;;23.70;99.90;;;;;;4996362;28;20701;-54
2022/05/31 13:06:28;;;;;;;227.68;182.32;;;23.50;1.00;;;;;;5007908;28;20214;-54
2022/05/31 13:09:01;;;;;;;255.05;194.88;;;23.60;1.00;;;;;;5005184;28;20270;-54
2022/05/31 13:20:28;;;;;;;199.25;166.25;;;24.50;1.00;;;;;;4998361;28;20246;-54
2022/05/31 13:22:59;;;;;;;211.77;158.25;;;24.60;99.90;;;;;;4990096;28;20213;-54
2022/05/31 13:25:30;;;;;;;368.42;230.18;;;25.00;1.00;;;;;;5006735;28;20230;-55
2022/05/31 13:27:58;;;;;;;302.38;219.07;;;24.70;99.90;;;;;;5000574;28;20224;-55
2022/05/31 13:30:27;;;;;;;279.88;202.02;;;24.70;1.00;;;;;;5002332;28;20223;-54
2022/05/31 13:32:53;;;;;;;290.08;208.15;;;25.00;99.90;;;;;;5006338;28;20231;-54
2022/05/31 13:35:29;;;;;;;388.00;233.07;;;24.70;99.90;;;;;;4999260;28;21375;-55
2022/05/31 13:38:01;;;;;;;362.70;226.60;;;24.50;1.00;;;;;;5005466;28;20845;-54